Terminal Aerodrome Forecast
Issued by NWS

Home | Current Version | Previous Version | Graphics & Text | Print | Product List | Glossary On
Versions: 1 2 3 4 5 6 7 8 9 10 11 12 13 14 15 16 17 18 19
000
FTUS43 KTOP 190856 AAA
TAFFOE
TAF AMD
KFOE 190856Z 1909/2006 14004KT 3SM BR SCT150
     FM191400 17008KT 5SM BR OVC011
     FM191800 17012KT P6SM SCT025
     FM200400 16010KT 4SM BR OVC013=

USA.gov is the U.S. government's official web portal to all federal, state and local government web resources and services.